Vassouras, Brazil
Current Conditions -  °F | °C
As of 10:00 AM on Tuesday 27 Jan 2015 (Local Time) from SBSC Reporting Station
Clear Clear  
Wind Chill: 88°   Ceiling: Unl
Heat Index: 89°   Visibility: 6mi
Dew Point: 64°   Wind: 10mph
Humidity: 46%   Direction: 20°NNE
Pressure: 29.91"   Gusts: NA
Location:  22.4°S, 43.66°W
Report Text: SBSC 271200Z 02009KT CAVOK 31/18 Q1013
Loading
Personal Weather Stations






























Interactive Weather Map New forecast layout! Learn more

10-Day Weather Forecast

Advertisements
Track Severe Weather on mobile